Johnsburg, Minnesota
Current Conditions -  °F | °C
As of 8:55 AM on Monday 24 Nov 2014 (Local Time) from KAUM Reporting Station
Overcast Overcast  
Wind Chill:   Ceiling: 1000
Heat Index: 19°   Visibility: 10mi
Dew Point: 18°   Wind: 23mph
Humidity: 93%   Direction: 300°WNW
Pressure: 29.38"   Gusts: 33mph
Location:  43.5433°N, 92.7489°W
Report Text: KAUM 241455Z AUTO 30020G29KT 10SM OVC010 M07/M08 A2938 RMK AO2
Loading
Personal Weather Stations






























Interactive Weather Map New forecast layout! Learn more

10-Day Weather Forecast

Advertisements
Track Severe Weather on mobile